Terminal Aerodrome Forecast
Issued by NWS Glasgow, MT

Home | Current Version | Previous Version | Text Only | Print | Product List | Glossary On
Versions: 1 2 3 4 5 6 7 8 9 10 11 12
996
FTUS45 KGGW 281128
TAFGGW
TAF
KGGW 281128Z 2812/2912 11012KT P6SM SKC
     FM281600 VRB05KT P6SM SKC
     FM282200 29008KT P6SM FEW130
     FM290500 VRB03KT P6SM FEW190=

USA.gov is the U.S. government's official web portal to all federal, state and local government web resources and services.